sensor_id;sensor_type;location;lat;lon;timestamp;P1;durP1;ratioP1;P2;durP2;ratioP2
4365;SDS011;2196;47.422;9.656;2023-05-27T00:00:06;10.33;;;9.27;;
4365;SDS011;2196;47.422;9.656;2023-05-27T00:02:34;12.37;;;10.20;;
4365;SDS011;2196;47.422;9.656;2023-05-27T00:05:03;11.90;;;9.87;;
4365;SDS011;2196;47.422;9.656;2023-05-27T00:07:31;12.63;;;9.47;;
4365;SDS011;2196;47.422;9.656;2023-05-27T00:09:58;18.70;;;9.37;;
4365;SDS011;2196;47.422;9.656;2023-05-27T00:12:25;10.67;;;9.80;;
4365;SDS011;2196;47.422;9.656;2023-05-27T00:14:52;10.87;;;9.07;;
4365;SDS011;2196;47.422;9.656;2023-05-27T00:17:19;10.57;;;8.60;;
4365;SDS011;2196;47.422;9.656;2023-05-27T00:19:46;9.57;;;8.53;;
4365;SDS011;2196;47.422;9.656;2023-05-27T00:22:15;9.07;;;8.23;;
4365;SDS011;2196;47.422;9.656;2023-05-27T00:24:42;11.20;;;10.07;;
4365;SDS011;2196;47.422;9.656;2023-05-27T00:27:09;10.83;;;9.57;;
4365;SDS011;2196;47.422;9.656;2023-05-27T00:29:36;10.43;;;9.33;;
4365;SDS011;2196;47.422;9.656;2023-05-27T00:32:03;11.17;;;9.37;;
4365;SDS011;2196;47.422;9.656;2023-05-27T00:34:30;12.83;;;9.93;;
4365;SDS011;2196;47.422;9.656;2023-05-27T00:36:58;9.17;;;8.43;;
4365;SDS011;2196;47.422;9.656;2023-05-27T00:39:26;9.30;;;8.47;;
4365;SDS011;2196;47.422;9.656;2023-05-27T00:41:53;12.60;;;10.33;;
4365;SDS011;2196;47.422;9.656;2023-05-27T00:44:20;10.87;;;9.80;;
4365;SDS011;2196;47.422;9.656;2023-05-27T00:46:47;11.27;;;10.07;;
4365;SDS011;2196;47.422;9.656;2023-05-27T00:49:14;11.70;;;9.40;;
4365;SDS011;2196;47.422;9.656;2023-05-27T00:51:42;11.90;;;10.70;;
4365;SDS011;2196;47.422;9.656;2023-05-27T00:54:09;11.27;;;10.30;;
4365;SDS011;2196;47.422;9.656;2023-05-27T00:56:38;11.53;;;10.47;;
4365;SDS011;2196;47.422;9.656;2023-05-27T00:59:05;11.63;;;10.43;;
4365;SDS011;2196;47.422;9.656;2023-05-27T01:01:32;12.33;;;11.13;;
4365;SDS011;2196;47.422;9.656;2023-05-27T01:04:01;12.63;;;11.43;;
4365;SDS011;2196;47.422;9.656;2023-05-27T01:06:31;10.00;;;9.20;;
4365;SDS011;2196;47.422;9.656;2023-05-27T01:09:09;12.20;;;11.00;;
4365;SDS011;2196;47.422;9.656;2023-05-27T01:11:43;11.57;;;10.37;;
4365;SDS011;2196;47.422;9.656;2023-05-27T01:14:17;11.60;;;10.20;;
4365;SDS011;2196;47.422;9.656;2023-05-27T01:16:46;10.87;;;9.73;;
4365;SDS011;2196;47.422;9.656;2023-05-27T01:19:17;11.53;;;10.47;;
4365;SDS011;2196;47.422;9.656;2023-05-27T01:21:55;12.53;;;9.90;;
4365;SDS011;2196;47.422;9.656;2023-05-27T01:24:26;11.30;;;10.23;;
4365;SDS011;2196;47.422;9.656;2023-05-27T01:26:53;14.03;;;11.20;;
4365;SDS011;2196;47.422;9.656;2023-05-27T01:29:21;12.20;;;10.97;;
4365;SDS011;2196;47.422;9.656;2023-05-27T01:31:50;13.13;;;11.73;;
4365;SDS011;2196;47.422;9.656;2023-05-27T01:34:24;13.87;;;11.07;;
4365;SDS011;2196;47.422;9.656;2023-05-27T01:36:58;13.97;;;12.27;;
4365;SDS011;2196;47.422;9.656;2023-05-27T01:39:29;12.60;;;11.50;;
4365;SDS011;2196;47.422;9.656;2023-05-27T01:41:58;12.97;;;11.70;;
4365;SDS011;2196;47.422;9.656;2023-05-27T01:44:27;12.10;;;11.00;;
4365;SDS011;2196;47.422;9.656;2023-05-27T01:46:58;15.40;;;11.40;;
4365;SDS011;2196;47.422;9.656;2023-05-27T01:49:29;15.80;;;11.83;;
4365;SDS011;2196;47.422;9.656;2023-05-27T01:51:56;11.30;;;10.27;;
4365;SDS011;2196;47.422;9.656;2023-05-27T01:54:23;12.77;;;11.47;;
4365;SDS011;2196;47.422;9.656;2023-05-27T01:56:52;15.23;;;10.97;;
4365;SDS011;2196;47.422;9.656;2023-05-27T01:59:19;13.67;;;11.93;;
4365;SDS011;2196;47.422;9.656;2023-05-27T02:01:47;11.93;;;10.73;;
4365;SDS011;2196;47.422;9.656;2023-05-27T02:04:14;12.53;;;11.27;;
4365;SDS011;2196;47.422;9.656;2023-05-27T02:06:41;14.50;;;11.97;;
4365;SDS011;2196;47.422;9.656;2023-05-27T02:09:08;13.53;;;12.20;;
4365;SDS011;2196;47.422;9.656;2023-05-27T02:11:36;12.27;;;11.03;;
4365;SDS011;2196;47.422;9.656;2023-05-27T02:14:04;11.83;;;10.63;;
4365;SDS011;2196;47.422;9.656;2023-05-27T02:16:32;11.77;;;10.60;;
4365;SDS011;2196;47.422;9.656;2023-05-27T02:19:00;13.60;;;12.30;;
4365;SDS011;2196;47.422;9.656;2023-05-27T02:21:27;11.43;;;10.53;;
4365;SDS011;2196;47.422;9.656;2023-05-27T02:23:54;13.37;;;11.50;;
4365;SDS011;2196;47.422;9.656;2023-05-27T02:26:21;13.37;;;12.07;;
4365;SDS011;2196;47.422;9.656;2023-05-27T02:28:48;14.77;;;11.20;;
4365;SDS011;2196;47.422;9.656;2023-05-27T02:31:16;11.30;;;10.00;;
4365;SDS011;2196;47.422;9.656;2023-05-27T02:33:43;13.53;;;12.10;;
4365;SDS011;2196;47.422;9.656;2023-05-27T02:36:10;12.93;;;11.53;;
4365;SDS011;2196;47.422;9.656;2023-05-27T02:38:37;11.33;;;10.30;;
4365;SDS011;2196;47.422;9.656;2023-05-27T02:41:04;13.90;;;12.50;;
4365;SDS011;2196;47.422;9.656;2023-05-27T02:43:31;12.43;;;11.20;;
4365;SDS011;2196;47.422;9.656;2023-05-27T02:45:58;14.37;;;12.87;;
4365;SDS011;2196;47.422;9.656;2023-05-27T02:48:26;14.60;;;11.77;;
4365;SDS011;2196;47.422;9.656;2023-05-27T02:50:53;12.03;;;10.87;;
4365;SDS011;2196;47.422;9.656;2023-05-27T02:53:20;15.97;;;12.83;;
4365;SDS011;2196;47.422;9.656;2023-05-27T02:55:47;14.67;;;12.53;;
4365;SDS011;2196;47.422;9.656;2023-05-27T02:58:14;13.17;;;11.87;;
4365;SDS011;2196;47.422;9.656;2023-05-27T03:00:41;13.37;;;12.00;;
4365;SDS011;2196;47.422;9.656;2023-05-27T03:03:08;14.27;;;11.47;;
4365;SDS011;2196;47.422;9.656;2023-05-27T03:05:36;15.10;;;12.63;;
4365;SDS011;2196;47.422;9.656;2023-05-27T03:08:03;13.90;;;11.43;;
4365;SDS011;2196;47.422;9.656;2023-05-27T03:10:31;14.33;;;11.60;;
4365;SDS011;2196;47.422;9.656;2023-05-27T03:12:58;15.50;;;11.50;;
4365;SDS011;2196;47.422;9.656;2023-05-27T03:15:25;12.83;;;10.63;;
4365;SDS011;2196;47.422;9.656;2023-05-27T03:17:54;11.57;;;10.47;;
4365;SDS011;2196;47.422;9.656;2023-05-27T03:20:22;10.80;;;9.70;;
4365;SDS011;2196;47.422;9.656;2023-05-27T03:22:50;10.80;;;9.70;;
4365;SDS011;2196;47.422;9.656;2023-05-27T03:25:17;12.27;;;10.87;;
4365;SDS011;2196;47.422;9.656;2023-05-27T03:27:44;11.23;;;10.13;;
4365;SDS011;2196;47.422;9.656;2023-05-27T03:30:11;11.57;;;10.40;;
4365;SDS011;2196;47.422;9.656;2023-05-27T03:32:38;11.30;;;10.13;;
4365;SDS011;2196;47.422;9.656;2023-05-27T03:35:05;11.97;;;10.83;;
4365;SDS011;2196;47.422;9.656;2023-05-27T03:37:33;10.30;;;9.30;;
4365;SDS011;2196;47.422;9.656;2023-05-27T03:40:01;15.03;;;10.30;;
4365;SDS011;2196;47.422;9.656;2023-05-27T03:42:28;13.47;;;10.50;;
4365;SDS011;2196;47.422;9.656;2023-05-27T03:44:55;10.43;;;9.40;;
4365;SDS011;2196;47.422;9.656;2023-05-27T03:47:22;13.73;;;10.77;;
4365;SDS011;2196;47.422;9.656;2023-05-27T03:49:49;13.67;;;10.43;;
4365;SDS011;2196;47.422;9.656;2023-05-27T03:52:16;11.83;;;10.63;;
4365;SDS011;2196;47.422;9.656;2023-05-27T03:54:43;14.57;;;11.97;;
4365;SDS011;2196;47.422;9.656;2023-05-27T03:57:12;17.03;;;11.70;;
4365;SDS011;2196;47.422;9.656;2023-05-27T03:59:39;13.27;;;11.87;;
4365;SDS011;2196;47.422;9.656;2023-05-27T04:02:06;13.03;;;10.83;;
4365;SDS011;2196;47.422;9.656;2023-05-27T04:04:33;11.43;;;10.40;;
4365;SDS011;2196;47.422;9.656;2023-05-27T04:07:00;12.90;;;11.70;;
4365;SDS011;2196;47.422;9.656;2023-05-27T04:09:29;11.87;;;10.80;;
4365;SDS011;2196;47.422;9.656;2023-05-27T04:11:56;12.27;;;11.03;;
4365;SDS011;2196;47.422;9.656;2023-05-27T04:14:25;14.53;;;10.40;;
4365;SDS011;2196;47.422;9.656;2023-05-27T04:16:52;11.57;;;10.30;;
4365;SDS011;2196;47.422;9.656;2023-05-27T04:19:19;13.27;;;11.97;;
4365;SDS011;2196;47.422;9.656;2023-05-27T04:21:47;10.93;;;9.87;;
4365;SDS011;2196;47.422;9.656;2023-05-27T04:24:14;15.30;;;11.40;;
4365;SDS011;2196;47.422;9.656;2023-05-27T04:26:41;11.37;;;10.20;;
4365;SDS011;2196;47.422;9.656;2023-05-27T04:29:08;13.47;;;10.13;;
4365;SDS011;2196;47.422;9.656;2023-05-27T04:31:38;10.73;;;9.00;;
4365;SDS011;2196;47.422;9.656;2023-05-27T04:34:05;11.47;;;10.37;;
4365;SDS011;2196;47.422;9.656;2023-05-27T04:36:32;13.70;;;10.47;;
4365;SDS011;2196;47.422;9.656;2023-05-27T04:38:59;9.83;;;9.00;;
4365;SDS011;2196;47.422;9.656;2023-05-27T04:41:27;10.63;;;9.57;;
4365;SDS011;2196;47.422;9.656;2023-05-27T04:43:54;15.30;;;11.17;;
4365;SDS011;2196;47.422;9.656;2023-05-27T04:46:23;11.13;;;9.93;;
4365;SDS011;2196;47.422;9.656;2023-05-27T04:48:52;10.60;;;9.60;;
4365;SDS011;2196;47.422;9.656;2023-05-27T04:51:20;12.53;;;10.90;;
4365;SDS011;2196;47.422;9.656;2023-05-27T04:53:48;10.63;;;9.73;;
4365;SDS011;2196;47.422;9.656;2023-05-27T04:56:15;12.83;;;10.97;;
4365;SDS011;2196;47.422;9.656;2023-05-27T04:58:42;10.97;;;9.87;;
4365;SDS011;2196;47.422;9.656;2023-05-27T05:01:11;11.00;;;9.90;;
4365;SDS011;2196;47.422;9.656;2023-05-27T05:03:42;11.63;;;10.53;;
4365;SDS011;2196;47.422;9.656;2023-05-27T05:06:18;11.30;;;9.83;;
4365;SDS011;2196;47.422;9.656;2023-05-27T05:08:47;13.07;;;9.37;;
4365;SDS011;2196;47.422;9.656;2023-05-27T05:11:14;10.23;;;9.20;;
4365;SDS011;2196;47.422;9.656;2023-05-27T05:13:41;10.97;;;9.50;;
4365;SDS011;2196;47.422;9.656;2023-05-27T05:16:08;12.43;;;10.03;;
4365;SDS011;2196;47.422;9.656;2023-05-27T05:18:35;11.57;;;9.37;;
4365;SDS011;2196;47.422;9.656;2023-05-27T05:21:02;15.00;;;9.77;;
4365;SDS011;2196;47.422;9.656;2023-05-27T05:23:31;10.70;;;8.87;;
4365;SDS011;2196;47.422;9.656;2023-05-27T05:25:58;12.77;;;8.67;;
4365;SDS011;2196;47.422;9.656;2023-05-27T05:28:31;10.37;;;8.20;;
4365;SDS011;2196;47.422;9.656;2023-05-27T05:30:59;12.83;;;9.10;;
4365;SDS011;2196;47.422;9.656;2023-05-27T05:33:26;10.27;;;9.27;;
4365;SDS011;2196;47.422;9.656;2023-05-27T05:35:53;13.63;;;8.87;;
4365;SDS011;2196;47.422;9.656;2023-05-27T05:38:20;9.77;;;8.63;;
4365;SDS011;2196;47.422;9.656;2023-05-27T05:40:49;11.27;;;8.00;;
4365;SDS011;2196;47.422;9.656;2023-05-27T05:43:17;10.57;;;8.10;;
4365;SDS011;2196;47.422;9.656;2023-05-27T05:45:45;12.97;;;8.20;;
4365;SDS011;2196;47.422;9.656;2023-05-27T05:48:12;9.27;;;8.47;;
4365;SDS011;2196;47.422;9.656;2023-05-27T05:50:39;12.03;;;8.00;;
4365;SDS011;2196;47.422;9.656;2023-05-27T05:53:07;9.80;;;8.57;;
4365;SDS011;2196;47.422;9.656;2023-05-27T05:55:35;8.93;;;8.00;;
4365;SDS011;2196;47.422;9.656;2023-05-27T05:58:04;10.43;;;8.60;;
4365;SDS011;2196;47.422;9.656;2023-05-27T06:00:31;15.57;;;8.37;;
4365;SDS011;2196;47.422;9.656;2023-05-27T06:02:58;10.40;;;9.13;;
4365;SDS011;2196;47.422;9.656;2023-05-27T06:05:25;10.63;;;7.17;;
4365;SDS011;2196;47.422;9.656;2023-05-27T06:07:52;10.33;;;8.30;;
4365;SDS011;2196;47.422;9.656;2023-05-27T06:10:19;11.57;;;8.90;;
4365;SDS011;2196;47.422;9.656;2023-05-27T06:12:46;11.03;;;8.50;;
4365;SDS011;2196;47.422;9.656;2023-05-27T06:15:14;9.52;;;8.45;;
4365;SDS011;2196;47.422;9.656;2023-05-27T06:17:42;11.80;;;10.10;;
4365;SDS011;2196;47.422;9.656;2023-05-27T06:20:10;8.40;;;7.70;;
4365;SDS011;2196;47.422;9.656;2023-05-27T06:22:37;9.07;;;8.27;;
4365;SDS011;2196;47.422;9.656;2023-05-27T06:25:04;8.90;;;8.00;;
4365;SDS011;2196;47.422;9.656;2023-05-27T06:27:32;9.40;;;8.53;;
4365;SDS011;2196;47.422;9.656;2023-05-27T06:29:59;9.33;;;8.43;;
4365;SDS011;2196;47.422;9.656;2023-05-27T06:32:28;9.90;;;8.87;;
4365;SDS011;2196;47.422;9.656;2023-05-27T06:34:55;10.53;;;9.20;;
4365;SDS011;2196;47.422;9.656;2023-05-27T06:37:22;9.10;;;8.27;;
4365;SDS011;2196;47.422;9.656;2023-05-27T06:39:49;10.73;;;9.63;;
4365;SDS011;2196;47.422;9.656;2023-05-27T06:42:16;11.23;;;8.77;;
4365;SDS011;2196;47.422;9.656;2023-05-27T06:44:45;9.77;;;8.77;;
4365;SDS011;2196;47.422;9.656;2023-05-27T06:47:13;9.60;;;8.53;;
4365;SDS011;2196;47.422;9.656;2023-05-27T06:49:43;8.10;;;7.37;;
4365;SDS011;2196;47.422;9.656;2023-05-27T06:52:10;10.07;;;8.97;;
4365;SDS011;2196;47.422;9.656;2023-05-27T06:54:37;11.20;;;9.10;;
4365;SDS011;2196;47.422;9.656;2023-05-27T06:57:07;10.20;;;9.20;;
4365;SDS011;2196;47.422;9.656;2023-05-27T06:59:34;11.40;;;8.53;;
4365;SDS011;2196;47.422;9.656;2023-05-27T07:02:04;11.57;;;10.50;;
4365;SDS011;2196;47.422;9.656;2023-05-27T07:04:31;10.47;;;9.43;;
4365;SDS011;2196;47.422;9.656;2023-05-27T07:07:00;11.40;;;10.37;;
4365;SDS011;2196;47.422;9.656;2023-05-27T07:09:31;10.73;;;9.57;;
4365;SDS011;2196;47.422;9.656;2023-05-27T07:11:58;10.17;;;9.27;;
4365;SDS011;2196;47.422;9.656;2023-05-27T07:14:26;10.00;;;9.00;;
4365;SDS011;2196;47.422;9.656;2023-05-27T07:16:53;11.83;;;9.37;;
4365;SDS011;2196;47.422;9.656;2023-05-27T07:19:21;10.07;;;9.07;;
4365;SDS011;2196;47.422;9.656;2023-05-27T07:21:48;10.33;;;9.33;;
4365;SDS011;2196;47.422;9.656;2023-05-27T07:24:16;11.57;;;9.93;;
4365;SDS011;2196;47.422;9.656;2023-05-27T07:26:43;9.73;;;8.90;;
4365;SDS011;2196;47.422;9.656;2023-05-27T07:29:10;12.03;;;10.83;;
4365;SDS011;2196;47.422;9.656;2023-05-27T07:31:37;10.50;;;9.50;;
4365;SDS011;2196;47.422;9.656;2023-05-27T07:34:04;9.97;;;9.13;;
4365;SDS011;2196;47.422;9.656;2023-05-27T07:36:31;9.83;;;8.83;;
4365;SDS011;2196;47.422;9.656;2023-05-27T07:38:58;9.07;;;8.23;;
4365;SDS011;2196;47.422;9.656;2023-05-27T07:41:27;9.15;;;8.35;;
4365;SDS011;2196;47.422;9.656;2023-05-27T07:43:54;9.95;;;8.38;;
4365;SDS011;2196;47.422;9.656;2023-05-27T07:46:21;9.07;;;8.27;;
4365;SDS011;2196;47.422;9.656;2023-05-27T07:48:48;9.60;;;8.80;;
4365;SDS011;2196;47.422;9.656;2023-05-27T07:51:15;10.55;;;9.60;;
4365;SDS011;2196;47.422;9.656;2023-05-27T07:53:42;11.73;;;9.75;;
4365;SDS011;2196;47.422;9.656;2023-05-27T07:56:09;10.43;;;9.10;;
4365;SDS011;2196;47.422;9.656;2023-05-27T07:58:38;11.88;;;10.68;;
4365;SDS011;2196;47.422;9.656;2023-05-27T08:01:05;13.00;;;10.45;;
4365;SDS011;2196;47.422;9.656;2023-05-27T08:03:32;13.03;;;11.10;;
4365;SDS011;2196;47.422;9.656;2023-05-27T08:05:59;10.57;;;9.40;;
4365;SDS011;2196;47.422;9.656;2023-05-27T08:08:26;11.03;;;10.13;;
4365;SDS011;2196;47.422;9.656;2023-05-27T08:10:52;11.67;;;10.53;;
4365;SDS011;2196;47.422;9.656;2023-05-27T08:13:19;11.63;;;10.27;;
4365;SDS011;2196;47.422;9.656;2023-05-27T08:15:48;11.17;;;10.13;;
4365;SDS011;2196;47.422;9.656;2023-05-27T08:18:15;12.23;;;10.13;;
4365;SDS011;2196;47.422;9.656;2023-05-27T08:20:42;12.00;;;10.97;;
4365;SDS011;2196;47.422;9.656;2023-05-27T08:23:09;11.20;;;10.10;;
4365;SDS011;2196;47.422;9.656;2023-05-27T08:25:36;11.53;;;10.30;;
4365;SDS011;2196;47.422;9.656;2023-05-27T08:28:03;11.63;;;10.53;;
4365;SDS011;2196;47.422;9.656;2023-05-27T08:30:30;11.27;;;9.90;;
4365;SDS011;2196;47.422;9.656;2023-05-27T08:32:59;17.43;;;11.43;;
4365;SDS011;2196;47.422;9.656;2023-05-27T08:35:26;10.90;;;9.90;;
4365;SDS011;2196;47.422;9.656;2023-05-27T08:37:53;12.33;;;11.10;;
4365;SDS011;2196;47.422;9.656;2023-05-27T08:40:20;11.23;;;10.23;;
4365;SDS011;2196;47.422;9.656;2023-05-27T08:42:47;10.57;;;9.47;;
4365;SDS011;2196;47.422;9.656;2023-05-27T08:45:14;13.77;;;10.00;;
4365;SDS011;2196;47.422;9.656;2023-05-27T08:47:41;12.83;;;11.33;;
4365;SDS011;2196;47.422;9.656;2023-05-27T08:50:10;12.57;;;11.37;;
4365;SDS011;2196;47.422;9.656;2023-05-27T08:52:39;12.87;;;11.00;;
4365;SDS011;2196;47.422;9.656;2023-05-27T08:55:11;12.47;;;11.27;;
4365;SDS011;2196;47.422;9.656;2023-05-27T08:57:42;11.43;;;10.30;;
4365;SDS011;2196;47.422;9.656;2023-05-27T09:00:14;13.50;;;12.07;;
4365;SDS011;2196;47.422;9.656;2023-05-27T09:02:41;12.23;;;11.03;;
4365;SDS011;2196;47.422;9.656;2023-05-27T09:05:10;12.37;;;11.27;;
4365;SDS011;2196;47.422;9.656;2023-05-27T09:07:37;12.33;;;11.13;;
4365;SDS011;2196;47.422;9.656;2023-05-27T09:10:05;13.03;;;11.40;;
4365;SDS011;2196;47.422;9.656;2023-05-27T09:12:33;12.67;;;11.30;;
4365;SDS011;2196;47.422;9.656;2023-05-27T09:15:00;10.23;;;9.33;;
4365;SDS011;2196;47.422;9.656;2023-05-27T09:17:28;12.43;;;11.13;;
4365;SDS011;2196;47.422;9.656;2023-05-27T09:19:56;12.13;;;10.93;;
4365;SDS011;2196;47.422;9.656;2023-05-27T09:22:25;12.93;;;11.07;;
4365;SDS011;2196;47.422;9.656;2023-05-27T09:24:55;11.50;;;10.43;;
4365;SDS011;2196;47.422;9.656;2023-05-27T09:27:26;15.30;;;12.13;;
4365;SDS011;2196;47.422;9.656;2023-05-27T09:29:53;12.10;;;10.17;;
4365;SDS011;2196;47.422;9.656;2023-05-27T09:32:24;11.23;;;10.07;;
4365;SDS011;2196;47.422;9.656;2023-05-27T09:34:52;11.40;;;10.43;;
4365;SDS011;2196;47.422;9.656;2023-05-27T09:37:19;11.77;;;10.88;;
4365;SDS011;2196;47.422;9.656;2023-05-27T09:39:50;10.38;;;9.48;;
4365;SDS011;2196;47.422;9.656;2023-05-27T09:42:18;11.77;;;10.63;;
4365;SDS011;2196;47.422;9.656;2023-05-27T09:44:46;12.38;;;10.80;;
4365;SDS011;2196;47.422;9.656;2023-05-27T09:47:17;13.95;;;12.32;;
4365;SDS011;2196;47.422;9.656;2023-05-27T09:49:48;22.30;;;11.82;;
4365;SDS011;2196;47.422;9.656;2023-05-27T09:52:19;12.30;;;11.20;;
4365;SDS011;2196;47.422;9.656;2023-05-27T09:54:49;13.45;;;12.15;;
4365;SDS011;2196;47.422;9.656;2023-05-27T09:57:17;12.40;;;11.13;;
4365;SDS011;2196;47.422;9.656;2023-05-27T09:59:45;14.93;;;13.52;;
4365;SDS011;2196;47.422;9.656;2023-05-27T10:02:14;12.65;;;11.35;;
4365;SDS011;2196;47.422;9.656;2023-05-27T10:04:44;11.40;;;10.43;;
4365;SDS011;2196;47.422;9.656;2023-05-27T10:07:14;13.05;;;11.77;;
4365;SDS011;2196;47.422;9.656;2023-05-27T10:09:46;12.75;;;11.25;;
4365;SDS011;2196;47.422;9.656;2023-05-27T10:12:16;11.23;;;9.85;;
4365;SDS011;2196;47.422;9.656;2023-05-27T10:14:43;12.60;;;11.45;;
4365;SDS011;2196;47.422;9.656;2023-05-27T10:17:12;11.43;;;10.05;;
4365;SDS011;2196;47.422;9.656;2023-05-27T10:19:49;11.70;;;10.60;;
4365;SDS011;2196;47.422;9.656;2023-05-27T10:22:22;11.32;;;10.23;;
4365;SDS011;2196;47.422;9.656;2023-05-27T10:24:51;11.07;;;10.05;;
4365;SDS011;2196;47.422;9.656;2023-05-27T10:27:18;12.18;;;10.85;;
4365;SDS011;2196;47.422;9.656;2023-05-27T10:29:56;10.40;;;9.48;;
4365;SDS011;2196;47.422;9.656;2023-05-27T10:32:24;9.52;;;8.63;;
4365;SDS011;2196;47.422;9.656;2023-05-27T10:34:53;11.27;;;10.13;;
4365;SDS011;2196;47.422;9.656;2023-05-27T10:37:21;14.48;;;10.63;;
4365;SDS011;2196;47.422;9.656;2023-05-27T10:39:56;12.45;;;10.68;;
4365;SDS011;2196;47.422;9.656;2023-05-27T10:42:24;12.23;;;11.10;;
4365;SDS011;2196;47.422;9.656;2023-05-27T10:45:01;12.20;;;8.73;;
4365;SDS011;2196;47.422;9.656;2023-05-27T10:47:34;8.65;;;7.85;;
4365;SDS011;2196;47.422;9.656;2023-05-27T10:50:12;10.02;;;9.23;;
4365;SDS011;2196;47.422;9.656;2023-05-27T10:52:40;8.88;;;8.18;;
4365;SDS011;2196;47.422;9.656;2023-05-27T10:55:09;9.82;;;8.57;;
4365;SDS011;2196;47.422;9.656;2023-05-27T10:57:36;11.23;;;9.05;;
4365;SDS011;2196;47.422;9.656;2023-05-27T11:00:04;10.45;;;9.55;;
4365;SDS011;2196;47.422;9.656;2023-05-27T11:02:34;9.13;;;8.35;;
4365;SDS011;2196;47.422;9.656;2023-05-27T11:05:08;10.27;;;9.25;;
4365;SDS011;2196;47.422;9.656;2023-05-27T11:07:36;10.05;;;9.07;;
4365;SDS011;2196;47.422;9.656;2023-05-27T11:10:05;10.70;;;8.70;;
4365;SDS011;2196;47.422;9.656;2023-05-27T11:12:34;10.05;;;9.00;;
4365;SDS011;2196;47.422;9.656;2023-05-27T11:15:05;11.50;;;10.18;;
4365;SDS011;2196;47.422;9.656;2023-05-27T11:17:33;10.50;;;9.52;;
4365;SDS011;2196;47.422;9.656;2023-05-27T11:20:00;10.68;;;9.52;;
4365;SDS011;2196;47.422;9.656;2023-05-27T11:22:30;9.53;;;8.57;;
4365;SDS011;2196;47.422;9.656;2023-05-27T11:24:59;9.87;;;8.93;;
4365;SDS011;2196;47.422;9.656;2023-05-27T11:27:38;8.80;;;8.00;;
4365;SDS011;2196;47.422;9.656;2023-05-27T11:30:06;10.40;;;8.30;;
4365;SDS011;2196;47.422;9.656;2023-05-27T11:32:38;15.70;;;9.33;;
4365;SDS011;2196;47.422;9.656;2023-05-27T11:35:12;10.20;;;9.10;;
4365;SDS011;2196;47.422;9.656;2023-05-27T11:37:39;9.10;;;8.40;;
4365;SDS011;2196;47.422;9.656;2023-05-27T11:40:10;8.80;;;8.03;;
4365;SDS011;2196;47.422;9.656;2023-05-27T11:42:43;8.68;;;7.75;;
4365;SDS011;2196;47.422;9.656;2023-05-27T11:45:15;7.87;;;7.27;;
4365;SDS011;2196;47.422;9.656;2023-05-27T11:47:43;8.37;;;7.80;;
4365;SDS011;2196;47.422;9.656;2023-05-27T11:50:12;9.00;;;8.07;;
4365;SDS011;2196;47.422;9.656;2023-05-27T11:52:51;8.63;;;7.57;;
4365;SDS011;2196;47.422;9.656;2023-05-27T11:55:19;8.10;;;7.40;;
4365;SDS011;2196;47.422;9.656;2023-05-27T11:57:48;9.13;;;8.33;;
4365;SDS011;2196;47.422;9.656;2023-05-27T12:00:15;10.03;;;9.00;;
4365;SDS011;2196;47.422;9.656;2023-05-27T12:02:44;7.67;;;7.00;;
4365;SDS011;2196;47.422;9.656;2023-05-27T12:05:11;9.03;;;8.30;;
4365;SDS011;2196;47.422;9.656;2023-05-27T12:07:38;8.93;;;8.03;;
4365;SDS011;2196;47.422;9.656;2023-05-27T12:10:06;8.33;;;7.63;;
4365;SDS011;2196;47.422;9.656;2023-05-27T12:12:34;8.57;;;7.57;;
4365;SDS011;2196;47.422;9.656;2023-05-27T12:15:05;8.47;;;7.47;;
4365;SDS011;2196;47.422;9.656;2023-05-27T12:17:32;8.13;;;7.40;;
4365;SDS011;2196;47.422;9.656;2023-05-27T12:19:59;11.57;;;7.63;;
4365;SDS011;2196;47.422;9.656;2023-05-27T12:22:26;13.13;;;8.10;;
4365;SDS011;2196;47.422;9.656;2023-05-27T12:24:53;7.90;;;7.13;;
4365;SDS011;2196;47.422;9.656;2023-05-27T12:27:20;8.40;;;7.67;;
4365;SDS011;2196;47.422;9.656;2023-05-27T12:29:47;9.17;;;8.23;;
4365;SDS011;2196;47.422;9.656;2023-05-27T12:32:15;7.87;;;7.37;;
4365;SDS011;2196;47.422;9.656;2023-05-27T12:34:43;7.50;;;6.80;;
4365;SDS011;2196;47.422;9.656;2023-05-27T12:37:10;12.67;;;8.90;;
4365;SDS011;2196;47.422;9.656;2023-05-27T12:39:37;35.33;;;10.00;;
4365;SDS011;2196;47.422;9.656;2023-05-27T12:42:04;7.37;;;6.53;;
4365;SDS011;2196;47.422;9.656;2023-05-27T12:44:34;10.93;;;6.67;;
4365;SDS011;2196;47.422;9.656;2023-05-27T12:47:01;7.57;;;6.13;;
4365;SDS011;2196;47.422;9.656;2023-05-27T12:49:33;27.80;;;10.37;;
4365;SDS011;2196;47.422;9.656;2023-05-27T12:52:00;7.30;;;6.57;;
4365;SDS011;2196;47.422;9.656;2023-05-27T12:54:28;10.17;;;7.70;;
4365;SDS011;2196;47.422;9.656;2023-05-27T12:56:55;18.03;;;9.10;;
4365;SDS011;2196;47.422;9.656;2023-05-27T12:59:22;7.43;;;6.73;;
4365;SDS011;2196;47.422;9.656;2023-05-27T13:01:49;7.30;;;6.63;;
4365;SDS011;2196;47.422;9.656;2023-05-27T13:04:16;6.60;;;6.03;;
4365;SDS011;2196;47.422;9.656;2023-05-27T13:06:45;8.97;;;6.47;;
4365;SDS011;2196;47.422;9.656;2023-05-27T13:09:12;7.17;;;6.53;;
4365;SDS011;2196;47.422;9.656;2023-05-27T13:11:39;6.77;;;6.23;;
4365;SDS011;2196;47.422;9.656;2023-05-27T13:14:06;7.00;;;6.47;;
4365;SDS011;2196;47.422;9.656;2023-05-27T13:16:33;11.10;;;6.80;;
4365;SDS011;2196;47.422;9.656;2023-05-27T13:19:00;9.87;;;6.87;;
4365;SDS011;2196;47.422;9.656;2023-05-27T13:21:27;7.30;;;6.60;;
4365;SDS011;2196;47.422;9.656;2023-05-27T13:23:55;6.90;;;6.30;;
4365;SDS011;2196;47.422;9.656;2023-05-27T13:26:22;9.87;;;6.27;;
4365;SDS011;2196;47.422;9.656;2023-05-27T13:28:50;6.13;;;5.73;;
4365;SDS011;2196;47.422;9.656;2023-05-27T13:31:17;7.33;;;6.63;;
4365;SDS011;2196;47.422;9.656;2023-05-27T13:33:44;6.03;;;5.60;;
4365;SDS011;2196;47.422;9.656;2023-05-27T13:36:12;6.90;;;6.23;;
4365;SDS011;2196;47.422;9.656;2023-05-27T13:38:39;5.97;;;5.47;;
4365;SDS011;2196;47.422;9.656;2023-05-27T13:41:07;6.67;;;6.13;;
4365;SDS011;2196;47.422;9.656;2023-05-27T13:43:34;5.90;;;5.50;;
4365;SDS011;2196;47.422;9.656;2023-05-27T13:46:01;6.27;;;5.67;;
4365;SDS011;2196;47.422;9.656;2023-05-27T13:48:28;8.63;;;5.70;;
4365;SDS011;2196;47.422;9.656;2023-05-27T13:50:55;7.57;;;5.90;;
4365;SDS011;2196;47.422;9.656;2023-05-27T13:53:22;6.00;;;5.40;;
4365;SDS011;2196;47.422;9.656;2023-05-27T13:55:49;7.70;;;6.77;;
4365;SDS011;2196;47.422;9.656;2023-05-27T13:58:17;7.37;;;5.93;;
4365;SDS011;2196;47.422;9.656;2023-05-27T14:00:44;9.53;;;6.60;;
4365;SDS011;2196;47.422;9.656;2023-05-27T14:03:11;6.20;;;5.63;;
4365;SDS011;2196;47.422;9.656;2023-05-27T14:05:38;5.23;;;4.87;;
4365;SDS011;2196;47.422;9.656;2023-05-27T14:08:06;7.67;;;6.27;;
4365;SDS011;2196;47.422;9.656;2023-05-27T14:10:33;6.10;;;5.70;;
4365;SDS011;2196;47.422;9.656;2023-05-27T14:13:00;6.03;;;5.43;;
4365;SDS011;2196;47.422;9.656;2023-05-27T14:15:29;7.77;;;7.10;;
4365;SDS011;2196;47.422;9.656;2023-05-27T14:17:56;6.50;;;5.83;;
4365;SDS011;2196;47.422;9.656;2023-05-27T14:20:25;6.13;;;5.33;;
4365;SDS011;2196;47.422;9.656;2023-05-27T14:22:52;6.40;;;5.80;;
4365;SDS011;2196;47.422;9.656;2023-05-27T14:25:19;7.43;;;6.70;;
4365;SDS011;2196;47.422;9.656;2023-05-27T14:27:46;6.50;;;5.72;;
4365;SDS011;2196;47.422;9.656;2023-05-27T14:30:13;6.47;;;5.80;;
4365;SDS011;2196;47.422;9.656;2023-05-27T14:32:42;5.70;;;5.20;;
4365;SDS011;2196;47.422;9.656;2023-05-27T14:35:10;7.50;;;6.93;;
4365;SDS011;2196;47.422;9.656;2023-05-27T14:37:37;6.57;;;5.93;;
4365;SDS011;2196;47.422;9.656;2023-05-27T14:40:04;7.80;;;5.93;;
4365;SDS011;2196;47.422;9.656;2023-05-27T14:42:32;6.13;;;5.63;;
4365;SDS011;2196;47.422;9.656;2023-05-27T14:44:59;7.07;;;5.67;;
4365;SDS011;2196;47.422;9.656;2023-05-27T14:47:26;6.10;;;5.60;;
4365;SDS011;2196;47.422;9.656;2023-05-27T14:49:55;9.37;;;5.77;;
4365;SDS011;2196;47.422;9.656;2023-05-27T14:52:21;6.23;;;5.67;;
4365;SDS011;2196;47.422;9.656;2023-05-27T14:54:48;6.87;;;5.93;;
4365;SDS011;2196;47.422;9.656;2023-05-27T14:57:15;7.53;;;5.50;;
4365;SDS011;2196;47.422;9.656;2023-05-27T14:59:42;6.47;;;5.97;;
4365;SDS011;2196;47.422;9.656;2023-05-27T15:02:09;11.80;;;6.03;;
4365;SDS011;2196;47.422;9.656;2023-05-27T15:04:36;9.23;;;5.40;;